sensor_id;sensor_type;location;lat;lon;timestamp;P1;durP1;ratioP1;P2;durP2;ratioP2
63259;SDS011;49390;51.380;0.098;2024-01-30T00:02:18;20.42;;;9.18;;
63259;SDS011;49390;51.380;0.098;2024-01-30T00:04:46;22.70;;;9.40;;
63259;SDS011;49390;51.380;0.098;2024-01-30T00:07:14;22.02;;;9.48;;
63259;SDS011;49390;51.380;0.098;2024-01-30T00:09:42;15.43;;;9.15;;
63259;SDS011;49390;51.380;0.098;2024-01-30T00:12:10;18.25;;;8.95;;
63259;SDS011;49390;51.380;0.098;2024-01-30T00:14:37;22.33;;;8.70;;
63259;SDS011;49390;51.380;0.098;2024-01-30T00:17:05;26.88;;;8.98;;
63259;SDS011;49390;51.380;0.098;2024-01-30T00:19:33;19.50;;;8.52;;
63259;SDS011;49390;51.380;0.098;2024-01-30T00:22:01;18.23;;;8.13;;
63259;SDS011;49390;51.380;0.098;2024-01-30T00:24:29;23.17;;;9.25;;
63259;SDS011;49390;51.380;0.098;2024-01-30T00:26:57;16.73;;;7.60;;
63259;SDS011;49390;51.380;0.098;2024-01-30T00:29:24;16.65;;;7.68;;
63259;SDS011;49390;51.380;0.098;2024-01-30T00:31:56;14.95;;;8.07;;
63259;SDS011;49390;51.380;0.098;2024-01-30T00:34:24;17.00;;;7.88;;
63259;SDS011;49390;51.380;0.098;2024-01-30T00:36:52;13.43;;;7.35;;
63259;SDS011;49390;51.380;0.098;2024-01-30T00:39:20;15.93;;;7.00;;
63259;SDS011;49390;51.380;0.098;2024-01-30T00:41:48;16.20;;;7.45;;
63259;SDS011;49390;51.380;0.098;2024-01-30T00:44:16;16.08;;;6.97;;
63259;SDS011;49390;51.380;0.098;2024-01-30T00:46:44;17.52;;;6.97;;
63259;SDS011;49390;51.380;0.098;2024-01-30T00:49:11;14.95;;;6.53;;
63259;SDS011;49390;51.380;0.098;2024-01-30T00:51:39;12.95;;;6.38;;
63259;SDS011;49390;51.380;0.098;2024-01-30T00:54:07;11.75;;;5.90;;
63259;SDS011;49390;51.380;0.098;2024-01-30T00:56:35;12.13;;;5.80;;
63259;SDS011;49390;51.380;0.098;2024-01-30T00:59:03;12.05;;;6.05;;
63259;SDS011;49390;51.380;0.098;2024-01-30T01:01:31;13.27;;;5.32;;
63259;SDS011;49390;51.380;0.098;2024-01-30T01:03:58;12.45;;;5.75;;
63259;SDS011;49390;51.380;0.098;2024-01-30T01:06:27;14.10;;;6.05;;
63259;SDS011;49390;51.380;0.098;2024-01-30T01:08:54;15.00;;;4.93;;
63259;SDS011;49390;51.380;0.098;2024-01-30T01:11:22;9.50;;;4.38;;
63259;SDS011;49390;51.380;0.098;2024-01-30T01:13:50;10.18;;;3.75;;
63259;SDS011;49390;51.380;0.098;2024-01-30T01:16:18;8.90;;;3.97;;
63259;SDS011;49390;51.380;0.098;2024-01-30T01:18:46;9.45;;;4.10;;
63259;SDS011;49390;51.380;0.098;2024-01-30T01:21:14;7.43;;;3.45;;
63259;SDS011;49390;51.380;0.098;2024-01-30T01:23:41;10.50;;;3.42;;
63259;SDS011;49390;51.380;0.098;2024-01-30T01:26:09;8.27;;;3.10;;
63259;SDS011;49390;51.380;0.098;2024-01-30T01:28:39;8.18;;;3.15;;
63259;SDS011;49390;51.380;0.098;2024-01-30T01:31:08;9.40;;;3.72;;
63259;SDS011;49390;51.380;0.098;2024-01-30T01:33:36;11.82;;;3.50;;
63259;SDS011;49390;51.380;0.098;2024-01-30T01:36:05;8.18;;;3.05;;
63259;SDS011;49390;51.380;0.098;2024-01-30T01:38:33;7.82;;;2.95;;
63259;SDS011;49390;51.380;0.098;2024-01-30T01:41:01;7.07;;;2.45;;
63259;SDS011;49390;51.380;0.098;2024-01-30T01:43:29;5.90;;;2.55;;
63259;SDS011;49390;51.380;0.098;2024-01-30T01:45:58;6.35;;;2.30;;
63259;SDS011;49390;51.380;0.098;2024-01-30T01:48:26;6.35;;;2.30;;
63259;SDS011;49390;51.380;0.098;2024-01-30T01:50:54;6.45;;;2.13;;
63259;SDS011;49390;51.380;0.098;2024-01-30T01:53:22;4.65;;;2.08;;
63259;SDS011;49390;51.380;0.098;2024-01-30T01:55:50;5.15;;;2.05;;
63259;SDS011;49390;51.380;0.098;2024-01-30T01:58:23;4.90;;;1.70;;
63259;SDS011;49390;51.380;0.098;2024-01-30T02:00:56;7.57;;;2.20;;
63259;SDS011;49390;51.380;0.098;2024-01-30T02:03:25;8.75;;;2.33;;
63259;SDS011;49390;51.380;0.098;2024-01-30T02:05:53;5.40;;;1.80;;
63259;SDS011;49390;51.380;0.098;2024-01-30T02:08:22;5.30;;;1.98;;
63259;SDS011;49390;51.380;0.098;2024-01-30T02:10:51;10.07;;;1.92;;
63259;SDS011;49390;51.380;0.098;2024-01-30T02:13:20;7.53;;;2.08;;
63259;SDS011;49390;51.380;0.098;2024-01-30T02:15:49;5.93;;;1.80;;
63259;SDS011;49390;51.380;0.098;2024-01-30T02:18:19;5.97;;;2.10;;
63259;SDS011;49390;51.380;0.098;2024-01-30T02:21:05;6.57;;;2.17;;
63259;SDS011;49390;51.380;0.098;2024-01-30T02:23:33;4.43;;;2.00;;
63259;SDS011;49390;51.380;0.098;2024-01-30T02:26:01;7.97;;;2.03;;
63259;SDS011;49390;51.380;0.098;2024-01-30T02:28:29;7.20;;;2.03;;
63259;SDS011;49390;51.380;0.098;2024-01-30T02:30:57;8.52;;;2.42;;
63259;SDS011;49390;51.380;0.098;2024-01-30T02:33:25;5.50;;;2.13;;
63259;SDS011;49390;51.380;0.098;2024-01-30T02:35:53;5.03;;;1.90;;
63259;SDS011;49390;51.380;0.098;2024-01-30T02:38:20;5.60;;;2.10;;
63259;SDS011;49390;51.380;0.098;2024-01-30T02:40:49;3.95;;;1.50;;
63259;SDS011;49390;51.380;0.098;2024-01-30T02:43:17;3.47;;;1.67;;
63259;SDS011;49390;51.380;0.098;2024-01-30T02:45:45;4.75;;;1.67;;
63259;SDS011;49390;51.380;0.098;2024-01-30T02:48:12;6.50;;;1.83;;
63259;SDS011;49390;51.380;0.098;2024-01-30T02:50:40;4.47;;;1.60;;
63259;SDS011;49390;51.380;0.098;2024-01-30T02:53:08;4.82;;;1.70;;
63259;SDS011;49390;51.380;0.098;2024-01-30T02:55:36;5.63;;;1.60;;
63259;SDS011;49390;51.380;0.098;2024-01-30T02:58:04;4.32;;;1.55;;
63259;SDS011;49390;51.380;0.098;2024-01-30T03:00:31;5.00;;;1.52;;
63259;SDS011;49390;51.380;0.098;2024-01-30T03:02:59;6.05;;;1.70;;
63259;SDS011;49390;51.380;0.098;2024-01-30T03:05:27;7.10;;;1.60;;
63259;SDS011;49390;51.380;0.098;2024-01-30T03:07:55;4.43;;;1.73;;
63259;SDS011;49390;51.380;0.098;2024-01-30T03:10:23;5.05;;;1.67;;
63259;SDS011;49390;51.380;0.098;2024-01-30T03:12:51;4.68;;;1.63;;
63259;SDS011;49390;51.380;0.098;2024-01-30T03:15:19;5.32;;;1.70;;
63259;SDS011;49390;51.380;0.098;2024-01-30T03:17:47;5.20;;;2.00;;
63259;SDS011;49390;51.380;0.098;2024-01-30T03:20:15;5.40;;;1.80;;
63259;SDS011;49390;51.380;0.098;2024-01-30T03:22:43;4.80;;;1.70;;
63259;SDS011;49390;51.380;0.098;2024-01-30T03:25:10;5.97;;;1.45;;
63259;SDS011;49390;51.380;0.098;2024-01-30T03:27:38;6.65;;;1.48;;
63259;SDS011;49390;51.380;0.098;2024-01-30T03:30:06;4.97;;;1.60;;
63259;SDS011;49390;51.380;0.098;2024-01-30T03:32:35;6.80;;;1.80;;
63259;SDS011;49390;51.380;0.098;2024-01-30T03:35:03;5.05;;;1.60;;
63259;SDS011;49390;51.380;0.098;2024-01-30T03:37:31;7.32;;;2.30;;
63259;SDS011;49390;51.380;0.098;2024-01-30T03:39:59;6.28;;;2.13;;
63259;SDS011;49390;51.380;0.098;2024-01-30T03:42:27;7.90;;;2.78;;
63259;SDS011;49390;51.380;0.098;2024-01-30T03:44:56;6.47;;;2.00;;
63259;SDS011;49390;51.380;0.098;2024-01-30T03:47:23;6.18;;;1.77;;
63259;SDS011;49390;51.380;0.098;2024-01-30T03:49:51;7.40;;;1.90;;
63259;SDS011;49390;51.380;0.098;2024-01-30T03:52:19;5.55;;;2.33;;
63259;SDS011;49390;51.380;0.098;2024-01-30T03:54:47;5.75;;;2.17;;
63259;SDS011;49390;51.380;0.098;2024-01-30T03:57:15;3.97;;;1.52;;
63259;SDS011;49390;51.380;0.098;2024-01-30T03:59:43;3.58;;;1.25;;
63259;SDS011;49390;51.380;0.098;2024-01-30T04:02:11;2.80;;;1.55;;
63259;SDS011;49390;51.380;0.098;2024-01-30T04:04:39;4.00;;;1.33;;
63259;SDS011;49390;51.380;0.098;2024-01-30T04:07:07;5.68;;;1.55;;
63259;SDS011;49390;51.380;0.098;2024-01-30T04:09:35;3.17;;;1.65;;
63259;SDS011;49390;51.380;0.098;2024-01-30T04:12:03;3.28;;;1.35;;
63259;SDS011;49390;51.380;0.098;2024-01-30T04:14:31;4.15;;;1.30;;
63259;SDS011;49390;51.380;0.098;2024-01-30T04:16:58;3.38;;;1.20;;
63259;SDS011;49390;51.380;0.098;2024-01-30T04:19:26;3.85;;;1.20;;
63259;SDS011;49390;51.380;0.098;2024-01-30T04:21:54;3.00;;;1.50;;
63259;SDS011;49390;51.380;0.098;2024-01-30T04:24:22;1.70;;;0.90;;
63259;SDS011;49390;51.380;0.098;2024-01-30T04:26:59;3.05;;;1.23;;
63259;SDS011;49390;51.380;0.098;2024-01-30T04:29:27;4.10;;;1.10;;
63259;SDS011;49390;51.380;0.098;2024-01-30T04:31:55;5.22;;;1.27;;
63259;SDS011;49390;51.380;0.098;2024-01-30T04:34:23;2.60;;;1.13;;
63259;SDS011;49390;51.380;0.098;2024-01-30T04:36:50;1.10;;;0.70;;
63259;SDS011;49390;51.380;0.098;2024-01-30T04:39:18;1.45;;;0.90;;
63259;SDS011;49390;51.380;0.098;2024-01-30T04:41:46;1.83;;;1.20;;
63259;SDS011;49390;51.380;0.098;2024-01-30T04:44:14;3.10;;;1.40;;
63259;SDS011;49390;51.380;0.098;2024-01-30T04:46:42;2.97;;;1.40;;
63259;SDS011;49390;51.380;0.098;2024-01-30T04:49:10;2.05;;;1.35;;
63259;SDS011;49390;51.380;0.098;2024-01-30T04:51:38;2.60;;;1.23;;
63259;SDS011;49390;51.380;0.098;2024-01-30T04:54:06;7.35;;;2.05;;
63259;SDS011;49390;51.380;0.098;2024-01-30T04:56:34;4.22;;;1.60;;
63259;SDS011;49390;51.380;0.098;2024-01-30T04:59:03;5.10;;;1.95;;
63259;SDS011;49390;51.380;0.098;2024-01-30T05:01:31;3.15;;;1.50;;
63259;SDS011;49390;51.380;0.098;2024-01-30T05:03:59;3.67;;;1.42;;
63259;SDS011;49390;51.380;0.098;2024-01-30T05:06:28;2.60;;;1.42;;
63259;SDS011;49390;51.380;0.098;2024-01-30T05:08:56;3.88;;;1.88;;
63259;SDS011;49390;51.380;0.098;2024-01-30T05:11:23;3.28;;;1.40;;
63259;SDS011;49390;51.380;0.098;2024-01-30T05:13:51;3.33;;;1.50;;
63259;SDS011;49390;51.380;0.098;2024-01-30T05:16:19;3.78;;;1.50;;
63259;SDS011;49390;51.380;0.098;2024-01-30T05:18:47;2.88;;;1.45;;
63259;SDS011;49390;51.380;0.098;2024-01-30T05:21:15;7.75;;;1.98;;
63259;SDS011;49390;51.380;0.098;2024-01-30T05:23:43;3.85;;;2.00;;
63259;SDS011;49390;51.380;0.098;2024-01-30T05:26:10;2.88;;;1.58;;
63259;SDS011;49390;51.380;0.098;2024-01-30T05:28:39;2.80;;;1.70;;
63259;SDS011;49390;51.380;0.098;2024-01-30T05:31:06;3.63;;;1.60;;
63259;SDS011;49390;51.380;0.098;2024-01-30T05:33:35;4.00;;;1.73;;
63259;SDS011;49390;51.380;0.098;2024-01-30T05:36:03;4.97;;;1.90;;
63259;SDS011;49390;51.380;0.098;2024-01-30T05:38:31;3.42;;;1.63;;
63259;SDS011;49390;51.380;0.098;2024-01-30T05:40:59;2.15;;;1.70;;
63259;SDS011;49390;51.380;0.098;2024-01-30T05:43:27;2.67;;;1.83;;
63259;SDS011;49390;51.380;0.098;2024-01-30T05:45:55;2.67;;;1.30;;
63259;SDS011;49390;51.380;0.098;2024-01-30T05:48:22;2.80;;;1.48;;
63259;SDS011;49390;51.380;0.098;2024-01-30T05:50:50;3.25;;;1.60;;
63259;SDS011;49390;51.380;0.098;2024-01-30T05:53:18;2.08;;;1.30;;
63259;SDS011;49390;51.380;0.098;2024-01-30T05:55:46;1.20;;;1.10;;
63259;SDS011;49390;51.380;0.098;2024-01-30T05:58:14;2.70;;;1.60;;
63259;SDS011;49390;51.380;0.098;2024-01-30T06:00:41;1.20;;;1.10;;
63259;SDS011;49390;51.380;0.098;2024-01-30T06:03:09;1.50;;;1.30;;
63259;SDS011;49390;51.380;0.098;2024-01-30T06:05:37;2.55;;;1.10;;
63259;SDS011;49390;51.380;0.098;2024-01-30T06:08:05;3.58;;;1.10;;
63259;SDS011;49390;51.380;0.098;2024-01-30T06:10:33;2.10;;;1.02;;
63259;SDS011;49390;51.380;0.098;2024-01-30T06:13:01;1.05;;;0.80;;
63259;SDS011;49390;51.380;0.098;2024-01-30T06:15:29;1.85;;;1.00;;
63259;SDS011;49390;51.380;0.098;2024-01-30T06:17:57;2.08;;;1.17;;
63259;SDS011;49390;51.380;0.098;2024-01-30T06:20:25;2.85;;;1.20;;
63259;SDS011;49390;51.380;0.098;2024-01-30T06:22:53;1.40;;;1.10;;
63259;SDS011;49390;51.380;0.098;2024-01-30T06:25:21;2.22;;;1.30;;
63259;SDS011;49390;51.380;0.098;2024-01-30T06:27:49;1.95;;;1.20;;
63259;SDS011;49390;51.380;0.098;2024-01-30T06:30:17;3.38;;;1.52;;
63259;SDS011;49390;51.380;0.098;2024-01-30T06:32:45;2.78;;;1.35;;
63259;SDS011;49390;51.380;0.098;2024-01-30T06:35:13;5.03;;;1.30;;
63259;SDS011;49390;51.380;0.098;2024-01-30T06:37:41;1.92;;;1.25;;
63259;SDS011;49390;51.380;0.098;2024-01-30T06:40:09;3.08;;;1.60;;
63259;SDS011;49390;51.380;0.098;2024-01-30T06:42:37;4.25;;;1.92;;
63259;SDS011;49390;51.380;0.098;2024-01-30T06:45:05;3.33;;;1.90;;
63259;SDS011;49390;51.380;0.098;2024-01-30T06:47:33;4.45;;;1.73;;
63259;SDS011;49390;51.380;0.098;2024-01-30T06:50:01;5.57;;;2.17;;
63259;SDS011;49390;51.380;0.098;2024-01-30T06:52:30;4.28;;;2.10;;
63259;SDS011;49390;51.380;0.098;2024-01-30T06:54:58;4.97;;;2.08;;
63259;SDS011;49390;51.380;0.098;2024-01-30T06:57:26;4.70;;;2.13;;
63259;SDS011;49390;51.380;0.098;2024-01-30T06:59:55;3.33;;;2.00;;
63259;SDS011;49390;51.380;0.098;2024-01-30T07:02:23;5.97;;;2.30;;
63259;SDS011;49390;51.380;0.098;2024-01-30T07:04:50;4.75;;;2.42;;
63259;SDS011;49390;51.380;0.098;2024-01-30T07:07:19;4.35;;;2.15;;
63259;SDS011;49390;51.380;0.098;2024-01-30T07:09:46;4.85;;;2.22;;
63259;SDS011;49390;51.380;0.098;2024-01-30T07:12:17;5.65;;;2.40;;
63259;SDS011;49390;51.380;0.098;2024-01-30T07:14:45;6.78;;;2.83;;
63259;SDS011;49390;51.380;0.098;2024-01-30T07:17:12;4.18;;;2.10;;
63259;SDS011;49390;51.380;0.098;2024-01-30T07:19:40;9.65;;;2.60;;
63259;SDS011;49390;51.380;0.098;2024-01-30T07:22:08;5.80;;;2.80;;
63259;SDS011;49390;51.380;0.098;2024-01-30T07:24:41;5.70;;;2.50;;
63259;SDS011;49390;51.380;0.098;2024-01-30T07:27:12;5.43;;;2.25;;
63259;SDS011;49390;51.380;0.098;2024-01-30T07:29:40;5.82;;;2.90;;
63259;SDS011;49390;51.380;0.098;2024-01-30T07:32:08;6.50;;;2.70;;
63259;SDS011;49390;51.380;0.098;2024-01-30T07:34:36;4.82;;;2.50;;
63259;SDS011;49390;51.380;0.098;2024-01-30T07:37:19;6.20;;;2.90;;
63259;SDS011;49390;51.380;0.098;2024-01-30T07:39:47;6.72;;;2.92;;
63259;SDS011;49390;51.380;0.098;2024-01-30T07:42:15;7.80;;;2.50;;
63259;SDS011;49390;51.380;0.098;2024-01-30T07:44:43;4.97;;;2.63;;
63259;SDS011;49390;51.380;0.098;2024-01-30T07:47:11;5.55;;;2.70;;
63259;SDS011;49390;51.380;0.098;2024-01-30T07:49:39;9.05;;;3.05;;
63259;SDS011;49390;51.380;0.098;2024-01-30T07:52:07;6.00;;;2.70;;
63259;SDS011;49390;51.380;0.098;2024-01-30T07:54:35;4.60;;;2.25;;
63259;SDS011;49390;51.380;0.098;2024-01-30T07:59:33;5.57;;;2.67;;
63259;SDS011;49390;51.380;0.098;2024-01-30T08:02:02;5.57;;;2.63;;
63259;SDS011;49390;51.380;0.098;2024-01-30T08:04:30;4.25;;;2.45;;
63259;SDS011;49390;51.380;0.098;2024-01-30T08:06:58;4.82;;;2.50;;
63259;SDS011;49390;51.380;0.098;2024-01-30T08:09:26;5.60;;;2.60;;
63259;SDS011;49390;51.380;0.098;2024-01-30T08:11:53;5.10;;;2.70;;
63259;SDS011;49390;51.380;0.098;2024-01-30T08:14:21;4.38;;;2.25;;
63259;SDS011;49390;51.380;0.098;2024-01-30T08:16:49;4.15;;;2.05;;
63259;SDS011;49390;51.380;0.098;2024-01-30T08:19:17;4.40;;;2.10;;
63259;SDS011;49390;51.380;0.098;2024-01-30T08:21:45;4.15;;;2.20;;
63259;SDS011;49390;51.380;0.098;2024-01-30T08:24:13;5.18;;;2.20;;
63259;SDS011;49390;51.380;0.098;2024-01-30T08:26:40;3.75;;;2.25;;
63259;SDS011;49390;51.380;0.098;2024-01-30T08:29:08;4.03;;;2.00;;
63259;SDS011;49390;51.380;0.098;2024-01-30T08:31:37;3.72;;;2.00;;
63259;SDS011;49390;51.380;0.098;2024-01-30T08:34:05;3.25;;;1.90;;
63259;SDS011;49390;51.380;0.098;2024-01-30T08:36:33;3.05;;;1.70;;
63259;SDS011;49390;51.380;0.098;2024-01-30T08:39:01;3.08;;;1.90;;
63259;SDS011;49390;51.380;0.098;2024-01-30T08:41:33;2.92;;;1.80;;
63259;SDS011;49390;51.380;0.098;2024-01-30T08:44:01;3.97;;;1.88;;
63259;SDS011;49390;51.380;0.098;2024-01-30T08:46:29;4.30;;;1.95;;
63259;SDS011;49390;51.380;0.098;2024-01-30T08:48:57;3.05;;;1.73;;
63259;SDS011;49390;51.380;0.098;2024-01-30T08:51:26;4.18;;;1.73;;
63259;SDS011;49390;51.380;0.098;2024-01-30T08:53:53;1.20;;;1.08;;
63259;SDS011;49390;51.380;0.098;2024-01-30T08:56:22;1.70;;;1.33;;
63259;SDS011;49390;51.380;0.098;2024-01-30T08:58:49;1.95;;;1.40;;
63259;SDS011;49390;51.380;0.098;2024-01-30T09:01:17;3.63;;;1.30;;
63259;SDS011;49390;51.380;0.098;2024-01-30T09:03:45;1.40;;;1.30;;
63259;SDS011;49390;51.380;0.098;2024-01-30T09:06:14;1.58;;;1.30;;
63259;SDS011;49390;51.380;0.098;2024-01-30T09:08:42;1.45;;;1.27;;
63259;SDS011;49390;51.380;0.098;2024-01-30T09:11:11;2.50;;;1.40;;
63259;SDS011;49390;51.380;0.098;2024-01-30T09:13:39;1.85;;;1.50;;
63259;SDS011;49390;51.380;0.098;2024-01-30T09:16:07;1.48;;;1.35;;
63259;SDS011;49390;51.380;0.098;2024-01-30T09:18:35;2.50;;;1.10;;
63259;SDS011;49390;51.380;0.098;2024-01-30T09:21:03;1.33;;;1.20;;
63259;SDS011;49390;51.380;0.098;2024-01-30T09:23:32;1.25;;;1.00;;
63259;SDS011;49390;51.380;0.098;2024-01-30T09:26:00;0.98;;;0.80;;
63259;SDS011;49390;51.380;0.098;2024-01-30T09:28:28;2.22;;;0.98;;
63259;SDS011;49390;51.380;0.098;2024-01-30T09:30:56;1.75;;;1.10;;
63259;SDS011;49390;51.380;0.098;2024-01-30T09:33:24;1.25;;;1.15;;
63259;SDS011;49390;51.380;0.098;2024-01-30T09:35:52;1.85;;;1.00;;
63259;SDS011;49390;51.380;0.098;2024-01-30T09:38:20;1.27;;;0.90;;
63259;SDS011;49390;51.380;0.098;2024-01-30T09:40:49;1.65;;;1.20;;
63259;SDS011;49390;51.380;0.098;2024-01-30T09:43:22;1.42;;;1.20;;
63259;SDS011;49390;51.380;0.098;2024-01-30T09:45:54;2.35;;;1.30;;
63259;SDS011;49390;51.380;0.098;2024-01-30T09:48:24;2.30;;;1.10;;
63259;SDS011;49390;51.380;0.098;2024-01-30T09:50:53;1.73;;;1.00;;
63259;SDS011;49390;51.380;0.098;2024-01-30T09:53:22;1.40;;;1.10;;
63259;SDS011;49390;51.380;0.098;2024-01-30T09:55:50;3.70;;;1.20;;
63259;SDS011;49390;51.380;0.098;2024-01-30T09:58:18;1.70;;;1.35;;
63259;SDS011;49390;51.380;0.098;2024-01-30T10:00:47;1.23;;;1.02;;
63259;SDS011;49390;51.380;0.098;2024-01-30T10:03:15;1.38;;;1.10;;
63259;SDS011;49390;51.380;0.098;2024-01-30T10:05:43;2.03;;;1.02;;
63259;SDS011;49390;51.380;0.098;2024-01-30T10:08:20;2.75;;;1.30;;
63259;SDS011;49390;51.380;0.098;2024-01-30T10:10:48;3.25;;;1.33;;
63259;SDS011;49390;51.380;0.098;2024-01-30T10:13:17;3.65;;;1.60;;
63259;SDS011;49390;51.380;0.098;2024-01-30T10:15:47;3.70;;;1.58;;
63259;SDS011;49390;51.380;0.098;2024-01-30T10:18:15;3.00;;;1.50;;
63259;SDS011;49390;51.380;0.098;2024-01-30T10:20:43;2.38;;;1.60;;
63259;SDS011;49390;51.380;0.098;2024-01-30T10:23:11;2.25;;;1.30;;
63259;SDS011;49390;51.380;0.098;2024-01-30T10:25:39;2.75;;;1.65;;
63259;SDS011;49390;51.380;0.098;2024-01-30T10:28:08;3.85;;;2.00;;
63259;SDS011;49390;51.380;0.098;2024-01-30T10:30:36;2.65;;;1.40;;
63259;SDS011;49390;51.380;0.098;2024-01-30T10:33:04;2.30;;;1.30;;
63259;SDS011;49390;51.380;0.098;2024-01-30T10:37:48;1.38;;;1.20;;
63259;SDS011;49390;51.380;0.098;2024-01-30T10:42:34;1.85;;;1.33;;
63259;SDS011;49390;51.380;0.098;2024-01-30T10:45:10;1.95;;;1.10;;
63259;SDS011;49390;51.380;0.098;2024-01-30T10:47:49;0.98;;;0.98;;
63259;SDS011;49390;51.380;0.098;2024-01-30T10:50:18;1.95;;;1.25;;
63259;SDS011;49390;51.380;0.098;2024-01-30T10:52:47;2.17;;;1.30;;
63259;SDS011;49390;51.380;0.098;2024-01-30T10:55:15;2.05;;;1.38;;
63259;SDS011;49390;51.380;0.098;2024-01-30T10:57:43;1.50;;;1.33;;
63259;SDS011;49390;51.380;0.098;2024-01-30T11:00:14;2.38;;;1.25;;
63259;SDS011;49390;51.380;0.098;2024-01-30T11:02:43;1.73;;;1.40;;
63259;SDS011;49390;51.380;0.098;2024-01-30T11:05:13;2.88;;;1.70;;
63259;SDS011;49390;51.380;0.098;2024-01-30T11:07:43;2.28;;;1.00;;
63259;SDS011;49390;51.380;0.098;2024-01-30T11:10:11;1.13;;;1.00;;
63259;SDS011;49390;51.380;0.098;2024-01-30T11:12:42;2.05;;;1.20;;
63259;SDS011;49390;51.380;0.098;2024-01-30T11:15:13;1.30;;;0.90;;
63259;SDS011;49390;51.380;0.098;2024-01-30T11:20:16;1.38;;;0.80;;
63259;SDS011;49390;51.380;0.098;2024-01-30T11:22:47;0.77;;;0.75;;
63259;SDS011;49390;51.380;0.098;2024-01-30T11:25:19;1.08;;;0.98;;
63259;SDS011;49390;51.380;0.098;2024-01-30T11:27:54;1.52;;;1.40;;
63259;SDS011;49390;51.380;0.098;2024-01-30T11:32:59;1.70;;;1.20;;
63259;SDS011;49390;51.380;0.098;2024-01-30T11:35:34;2.17;;;1.10;;
63259;SDS011;49390;51.380;0.098;2024-01-30T11:38:02;3.85;;;1.50;;
63259;SDS011;49390;51.380;0.098;2024-01-30T11:40:32;1.98;;;1.30;;
63259;SDS011;49390;51.380;0.098;2024-01-30T11:43:01;1.55;;;1.00;;
63259;SDS011;49390;51.380;0.098;2024-01-30T11:45:32;1.63;;;1.20;;
63259;SDS011;49390;51.380;0.098;2024-01-30T11:48:00;1.13;;;1.13;;
63259;SDS011;49390;51.380;0.098;2024-01-30T11:50:33;2.47;;;1.05;;
63259;SDS011;49390;51.380;0.098;2024-01-30T11:53:02;0.73;;;0.70;;
63259;SDS011;49390;51.380;0.098;2024-01-30T11:55:30;1.00;;;1.00;;
63259;SDS011;49390;51.380;0.098;2024-01-30T11:58:01;2.15;;;1.30;;
63259;SDS011;49390;51.380;0.098;2024-01-30T12:00:30;3.58;;;1.50;;
63259;SDS011;49390;51.380;0.098;2024-01-30T12:03:00;2.63;;;1.50;;
63259;SDS011;49390;51.380;0.098;2024-01-30T12:05:30;3.00;;;1.60;;
63259;SDS011;49390;51.380;0.098;2024-01-30T12:07:58;1.77;;;1.15;;
63259;SDS011;49390;51.380;0.098;2024-01-30T12:10:28;1.33;;;1.10;;
63259;SDS011;49390;51.380;0.098;2024-01-30T12:12:56;2.65;;;1.30;;
63259;SDS011;49390;51.380;0.098;2024-01-30T12:15:26;1.85;;;1.20;;
63259;SDS011;49390;51.380;0.098;2024-01-30T12:18:03;1.70;;;1.30;;
63259;SDS011;49390;51.380;0.098;2024-01-30T12:20:34;1.02;;;1.00;;
63259;SDS011;49390;51.380;0.098;2024-01-30T12:23:02;1.60;;;1.05;;
63259;SDS011;49390;51.380;0.098;2024-01-30T12:25:30;1.60;;;1.15;;
63259;SDS011;49390;51.380;0.098;2024-01-30T12:27:58;1.13;;;0.95;;
63259;SDS011;49390;51.380;0.098;2024-01-30T12:30:27;2.03;;;1.10;;
63259;SDS011;49390;51.380;0.098;2024-01-30T12:32:55;1.73;;;1.10;;
63259;SDS011;49390;51.380;0.098;2024-01-30T12:35:23;0.93;;;0.82;;
63259;SDS011;49390;51.380;0.098;2024-01-30T12:37:51;2.53;;;1.13;;
63259;SDS011;49390;51.380;0.098;2024-01-30T12:40:19;2.03;;;1.20;;
63259;SDS011;49390;51.380;0.098;2024-01-30T12:42:47;1.38;;;1.20;;
63259;SDS011;49390;51.380;0.098;2024-01-30T12:47:49;1.10;;;1.05;;
63259;SDS011;49390;51.380;0.098;2024-01-30T12:50:17;1.15;;;1.00;;
63259;SDS011;49390;51.380;0.098;2024-01-30T12:52:46;1.75;;;1.13;;
63259;SDS011;49390;51.380;0.098;2024-01-30T12:55:16;1.67;;;1.10;;
63259;SDS011;49390;51.380;0.098;2024-01-30T12:57:45;3.88;;;2.17;;
63259;SDS011;49390;51.380;0.098;2024-01-30T13:00:13;1.13;;;0.93;;
63259;SDS011;49390;51.380;0.098;2024-01-30T13:05:15;1.63;;;1.20;;
63259;SDS011;49390;51.380;0.098;2024-01-30T13:07:43;1.48;;;1.38;;
63259;SDS011;49390;51.380;0.098;2024-01-30T13:10:11;1.98;;;1.33;;
63259;SDS011;49390;51.380;0.098;2024-01-30T13:12:39;1.23;;;0.90;;
63259;SDS011;49390;51.380;0.098;2024-01-30T13:15:07;1.42;;;1.10;;
63259;SDS011;49390;51.380;0.098;2024-01-30T13:17:36;1.80;;;1.33;;
63259;SDS011;49390;51.380;0.098;2024-01-30T13:20:04;2.25;;;1.45;;
63259;SDS011;49390;51.380;0.098;2024-01-30T13:22:38;2.45;;;1.40;;
63259;SDS011;49390;51.380;0.098;2024-01-30T13:25:07;2.47;;;1.33;;
63259;SDS011;49390;51.380;0.098;2024-01-30T13:27:36;2.25;;;1.38;;
63259;SDS011;49390;51.380;0.098;2024-01-30T13:30:05;2.17;;;1.60;;
63259;SDS011;49390;51.380;0.098;2024-01-30T13:32:37;2.25;;;1.30;;
63259;SDS011;49390;51.380;0.098;2024-01-30T13:35:05;1.75;;;1.35;;
63259;SDS011;49390;51.380;0.098;2024-01-30T13:37:34;2.35;;;1.50;;
63259;SDS011;49390;51.380;0.098;2024-01-30T13:40:03;4.45;;;1.58;;
63259;SDS011;49390;51.380;0.098;2024-01-30T13:42:38;1.88;;;1.27;;
63259;SDS011;49390;51.380;0.098;2024-01-30T13:45:06;2.55;;;1.40;;
63259;SDS011;49390;51.380;0.098;2024-01-30T13:47:37;3.75;;;1.60;;
63259;SDS011;49390;51.380;0.098;2024-01-30T13:50:05;1.42;;;1.15;;
63259;SDS011;49390;51.380;0.098;2024-01-30T13:52:34;1.70;;;1.23;;
63259;SDS011;49390;51.380;0.098;2024-01-30T13:55:11;1.20;;;1.10;;
63259;SDS011;49390;51.380;0.098;2024-01-30T13:57:39;1.48;;;1.23;;
63259;SDS011;49390;51.380;0.098;2024-01-30T14:00:07;2.20;;;1.20;;
63259;SDS011;49390;51.380;0.098;2024-01-30T14:02:39;1.58;;;1.10;;
63259;SDS011;49390;51.380;0.098;2024-01-30T14:05:07;2.13;;;1.13;;
63259;SDS011;49390;51.380;0.098;2024-01-30T14:07:36;2.20;;;1.40;;
63259;SDS011;49390;51.380;0.098;2024-01-30T14:10:07;2.33;;;1.23;;
63259;SDS011;49390;51.380;0.098;2024-01-30T14:12:41;2.17;;;1.30;;
63259;SDS011;49390;51.380;0.098;2024-01-30T14:15:10;3.30;;;1.40;;
63259;SDS011;49390;51.380;0.098;2024-01-30T14:17:54;2.08;;;1.23;;
63259;SDS011;49390;51.380;0.098;2024-01-30T14:20:22;2.25;;;1.40;;
63259;SDS011;49390;51.380;0.098;2024-01-30T14:22:51;3.45;;;1.50;;
63259;SDS011;49390;51.380;0.098;2024-01-30T14:25:21;1.73;;;1.50;;
63259;SDS011;49390;51.380;0.098;2024-01-30T14:27:49;1.85;;;1.33;;
63259;SDS011;49390;51.380;0.098;2024-01-30T14:30:17;2.05;;;1.08;;
63259;SDS011;49390;51.380;0.098;2024-01-30T14:32:45;2.58;;;1.40;;
63259;SDS011;49390;51.380;0.098;2024-01-30T14:35:14;2.15;;;1.15;;
63259;SDS011;49390;51.380;0.098;2024-01-30T14:37:42;1.42;;;1.20;;
63259;SDS011;49390;51.380;0.098;2024-01-30T14:40:10;2.47;;;1.25;;
63259;SDS011;49390;51.380;0.098;2024-01-30T14:42:39;3.05;;;1.33;;
63259;SDS011;49390;51.380;0.098;2024-01-30T14:45:07;2.15;;;1.27;;
63259;SDS011;49390;51.380;0.098;2024-01-30T14:47:35;1.55;;;1.35;;
63259;SDS011;49390;51.380;0.098;2024-01-30T14:50:04;1.40;;;1.30;;
63259;SDS011;49390;51.380;0.098;2024-01-30T14:52:35;2.72;;;1.50;;
63259;SDS011;49390;51.380;0.098;2024-01-30T14:55:05;1.67;;;1.40;;
63259;SDS011;49390;51.380;0.098;2024-01-30T14:57:33;2.80;;;1.60;;
63259;SDS011;49390;51.380;0.098;2024-01-30T15:00:02;2.25;;;1.42;;
63259;SDS011;49390;51.380;0.098;2024-01-30T15:02:31;2.78;;;1.50;;
63259;SDS011;49390;51.380;0.098;2024-01-30T15:04:59;2.13;;;1.63;;
63259;SDS011;49390;51.380;0.098;2024-01-30T15:07:27;3.28;;;1.60;;
63259;SDS011;49390;51.380;0.098;2024-01-30T15:10:07;2.20;;;1.33;;
63259;SDS011;49390;51.380;0.098;2024-01-30T15:12:36;2.75;;;1.40;;